Time;durP1;ratioP1;P1;durP2;ratioP2;P2;SDS_P1;SDS_P2;PMS_P1;PMS_P2;Temp;Humidity;BMP_temperature;BMP_pressure;BME280_temperature;BME280_humidity;BME280_pressure;Samples;Min_cycle;Max_cycle;Signal;HPM_P1;HPM_P2
2022/07/04 00:00:36;;;;;;;2.65;2.00;;;28.10;90.20;;;;;;4991720;28;20089;-72
2022/07/04 00:03:01;;;;;;;3.28;2.15;;;28.10;90.30;;;;;;4992576;28;20516;-72
2022/07/04 00:05:27;;;;;;;4.07;2.13;;;28.10;90.40;;;;;;4991984;28;20168;-71
2022/07/04 00:07:53;;;;;;;4.55;2.35;;;28.10;90.60;;;;;;4991405;28;20026;-72
2022/07/04 00:10:20;;;;;;;4.50;2.42;;;28.10;90.70;;;;;;4992917;28;20023;-72
2022/07/04 00:12:46;;;;;;;3.45;2.00;;;28.10;90.80;;;;;;4994300;28;20507;-70
2022/07/04 00:15:12;;;;;;;2.72;1.90;;;28.10;90.90;;;;;;4991767;28;20367;-72
2022/07/04 00:17:38;;;;;;;1.90;1.80;;;28.00;91.20;;;;;;4992675;28;20037;-71
2022/07/04 00:20:06;;;;;;;8.25;2.30;;;28.00;91.00;;;;;;4991498;28;20022;-71
2022/07/04 00:22:32;;;;;;;7.75;2.35;;;28.00;91.00;;;;;;4988946;28;20034;-71
2022/07/04 00:24:58;;;;;;;3.40;2.40;;;28.00;91.10;;;;;;4991779;28;20023;-72
2022/07/04 00:27:24;;;;;;;7.10;2.75;;;28.00;91.10;;;;;;4992231;28;20026;-72
2022/07/04 00:29:50;;;;;;;3.10;2.45;;;27.90;91.30;;;;;;4991715;28;20030;-72
2022/07/04 00:32:16;;;;;;;2.97;2.10;;;27.90;91.40;;;;;;4990124;28;20026;-72
2022/07/04 00:34:42;;;;;;;4.40;2.22;;;27.80;91.50;;;;;;4991557;28;20034;-72
2022/07/04 00:37:08;;;;;;;2.85;2.33;;;27.80;91.70;;;;;;4990959;28;20061;-71
2022/07/04 00:39:34;;;;;;;2.90;2.25;;;27.70;91.50;;;;;;4992161;28;20026;-71
2022/07/04 00:41:59;;;;;;;5.72;2.55;;;27.70;91.60;;;;;;4994582;28;20085;-72
2022/07/04 00:44:25;;;;;;;3.40;2.22;;;27.70;91.70;;;;;;4991918;28;20728;-73
2022/07/04 00:46:51;;;;;;;3.67;2.45;;;27.70;91.70;;;;;;4991819;28;20026;-72
2022/07/04 00:49:18;;;;;;;3.28;2.35;;;27.60;91.60;;;;;;4991176;28;20022;-72
2022/07/04 00:51:45;;;;;;;3.47;2.20;;;27.60;91.60;;;;;;4991633;28;20137;-72
2022/07/04 00:54:13;;;;;;;4.57;2.45;;;27.60;91.60;;;;;;4991650;28;20113;-70
2022/07/04 00:56:41;;;;;;;9.38;2.33;;;27.60;91.80;;;;;;4991212;28;20478;-70
2022/07/04 00:59:08;;;;;;;2.80;2.53;;;27.60;91.80;;;;;;4991412;28;20034;-69
2022/07/04 01:01:34;;;;;;;3.50;2.58;;;27.50;91.80;;;;;;4991192;28;20157;-72
2022/07/04 01:04:02;;;;;;;5.72;2.60;;;27.60;91.90;;;;;;4991474;28;20109;-70
2022/07/04 01:06:28;;;;;;;3.72;2.50;;;27.50;92.20;;;;;;4989980;28;20488;-70
2022/07/04 01:08:55;;;;;;;3.58;2.25;;;27.50;92.10;;;;;;4991478;28;20022;-70
2022/07/04 01:11:20;;;;;;;4.75;2.67;;;27.50;92.00;;;;;;4992992;28;20033;-70
2022/07/04 01:13:46;;;;;;;3.42;2.30;;;27.50;92.10;;;;;;4991327;28;20034;-70
2022/07/04 01:16:12;;;;;;;5.20;2.67;;;27.50;92.40;;;;;;4991079;28;20389;-70
2022/07/04 01:18:38;;;;;;;3.63;2.58;;;27.50;92.40;;;;;;4990035;28;20026;-71
2022/07/04 01:21:05;;;;;;;4.18;2.30;;;27.60;92.20;;;;;;4991040;28;20022;-70
2022/07/04 01:23:31;;;;;;;4.00;2.58;;;27.50;92.30;;;;;;4991088;28;20129;-71
2022/07/04 01:25:57;;;;;;;3.72;2.70;;;27.50;92.40;;;;;;4991269;28;20109;-70
2022/07/04 01:28:24;;;;;;;4.82;2.40;;;27.50;92.80;;;;;;4991732;28;20026;-71
2022/07/04 01:30:51;;;;;;;4.40;2.80;;;27.50;92.90;;;;;;4993976;28;20022;-70
2022/07/04 01:33:19;;;;;;;4.65;2.80;;;27.50;93.10;;;;;;4991605;28;20287;-70
2022/07/04 01:35:48;;;;;;;3.63;2.80;;;27.50;93.40;;;;;;4989486;28;20058;-71
2022/07/04 01:38:14;;;;;;;8.45;3.10;;;27.50;93.40;;;;;;4991636;28;20023;-70
2022/07/04 01:40:39;;;;;;;7.05;2.90;;;27.60;93.50;;;;;;4993518;28;20018;-70
2022/07/04 01:43:05;;;;;;;5.95;3.33;;;27.50;93.50;;;;;;4991602;28;20527;-71
2022/07/04 01:45:37;;;;;;;11.88;3.20;;;27.50;94.20;;;;;;4990738;28;20290;-70
2022/07/04 01:48:04;;;;;;;6.80;3.00;;;27.50;94.50;;;;;;4982725;28;20038;-71
2022/07/04 01:50:30;;;;;;;6.07;3.30;;;27.50;94.40;;;;;;4990546;28;20105;-70
2022/07/04 01:52:56;;;;;;;6.97;3.05;;;27.50;94.50;;;;;;4991286;28;20122;-71
2022/07/04 01:55:22;;;;;;;2.88;2.60;;;27.50;94.50;;;;;;4990689;28;20039;-70
2022/07/04 01:57:47;;;;;;;6.38;2.85;;;27.50;94.30;;;;;;4991102;28;20271;-71
2022/07/04 02:02:58;;;;;;;6.18;2.60;;;27.50;94.10;;;;;;4994903;28;20081;-71
2022/07/04 02:05:24;;;;;;;5.20;2.90;;;27.50;94.20;;;;;;4993952;28;20061;-70
2022/07/04 02:07:50;;;;;;;7.80;3.10;;;27.50;94.30;;;;;;4994812;28;20053;-70
2022/07/04 02:10:16;;;;;;;4.57;3.17;;;27.60;94.30;;;;;;4994838;28;20019;-70
2022/07/04 02:15:26;;;;;;;7.95;3.10;;;27.50;94.50;;;;;;4994420;28;20524;-70
2022/07/04 02:17:52;;;;;;;3.85;2.83;;;27.40;94.80;;;;;;4994552;28;20030;-70
2022/07/04 02:20:18;;;;;;;3.80;2.83;;;27.40;95.40;;;;;;4994433;28;20018;-71
2022/07/04 02:22:43;;;;;;;6.88;2.97;;;27.40;96.20;;;;;;4994774;28;20508;-71
2022/07/04 02:25:11;;;;;;;4.65;2.90;;;27.30;96.20;;;;;;4992628;28;20027;-71
2022/07/04 02:27:37;;;;;;;5.93;2.42;;;27.30;96.30;;;;;;4994601;28;20030;-71
2022/07/04 02:30:04;;;;;;;3.53;2.85;;;27.20;96.60;;;;;;4993725;28;20452;-71
2022/07/04 02:32:29;;;;;;;5.32;2.85;;;27.30;96.70;;;;;;4994230;28;20030;-71
2022/07/04 02:34:55;;;;;;;6.82;2.95;;;27.30;95.80;;;;;;4993706;28;20018;-71
2022/07/04 02:37:21;;;;;;;5.90;2.80;;;27.30;96.00;;;;;;4994207;28;20516;-71
2022/07/04 02:39:46;;;;;;;17.52;3.33;;;27.30;95.80;;;;;;4992481;28;20076;-71
2022/07/04 02:42:12;;;;;;;3.92;2.97;;;27.30;96.00;;;;;;4997008;28;20041;-71
2022/07/04 02:44:38;;;;;;;6.10;3.03;;;27.30;96.30;;;;;;4993632;28;20478;-71
2022/07/04 02:47:04;;;;;;;11.55;3.47;;;27.30;96.00;;;;;;4993474;28;20026;-71
2022/07/04 02:49:29;;;;;;;10.95;3.35;;;27.20;95.60;;;;;;4993846;28;20409;-71
2022/07/04 02:51:55;;;;;;;7.03;3.30;;;27.20;96.10;;;;;;4993790;28;20058;-71
2022/07/04 02:54:21;;;;;;;9.07;3.45;;;27.20;95.90;;;;;;4994019;28;20033;-71
2022/07/04 02:56:46;;;;;;;4.68;2.95;;;27.20;95.90;;;;;;4993568;28;20054;-71
2022/07/04 02:59:12;;;;;;;7.53;2.92;;;27.30;96.30;;;;;;4993849;28;20035;-71
2022/07/04 03:01:38;;;;;;;6.35;3.40;;;27.20;96.10;;;;;;4992102;28;20390;-71
2022/07/04 03:04:03;;;;;;;6.05;3.10;;;27.20;96.30;;;;;;4993530;28;20032;-71
2022/07/04 03:06:30;;;;;;;6.85;3.00;;;27.30;96.40;;;;;;4993647;28;20374;-71
2022/07/04 03:08:56;;;;;;;5.63;3.08;;;27.20;96.50;;;;;;4993722;28;20054;-71
2022/07/04 03:11:22;;;;;;;6.60;2.92;;;27.20;96.40;;;;;;4991507;28;20437;-70
2022/07/04 03:13:47;;;;;;;10.38;3.13;;;27.10;96.30;;;;;;4993383;28;20293;-70
2022/07/04 03:16:13;;;;;;;5.53;2.90;;;27.10;96.20;;;;;;4993064;28;20046;-70
2022/07/04 03:18:39;;;;;;;5.50;3.35;;;27.10;96.30;;;;;;4993126;28;20022;-71
2022/07/04 03:21:05;;;;;;;5.88;2.92;;;27.00;96.30;;;;;;4993090;28;20030;-71
2022/07/04 03:23:32;;;;;;;6.63;3.15;;;27.00;96.60;;;;;;4992172;28;20478;-71
2022/07/04 03:25:58;;;;;;;5.13;3.30;;;26.90;96.70;;;;;;4991794;28;20564;-71
2022/07/04 03:28:23;;;;;;;6.50;3.42;;;26.90;96.70;;;;;;4993821;28;20031;-71
2022/07/04 03:30:50;;;;;;;4.22;3.33;;;26.80;96.40;;;;;;4992595;28;20389;-71
2022/07/04 03:33:15;;;;;;;5.50;3.38;;;26.80;96.60;;;;;;4993359;28;20066;-71
2022/07/04 03:35:41;;;;;;;4.65;3.17;;;26.80;96.90;;;;;;4992508;28;20072;-70
2022/07/04 03:38:07;;;;;;;6.50;3.20;;;26.80;97.10;;;;;;4993462;28;20202;-70
2022/07/04 03:40:35;;;;;;;6.00;3.45;;;26.80;96.90;;;;;;4995475;28;20026;-71
2022/07/04 03:43:00;;;;;;;4.75;3.05;;;26.80;96.90;;;;;;4993190;28;20041;-70
2022/07/04 03:45:26;;;;;;;5.05;3.60;;;26.80;96.90;;;;;;4992282;28;20602;-70
2022/07/04 03:47:52;;;;;;;10.45;3.38;;;26.80;96.80;;;;;;4992656;28;20121;-71
2022/07/04 03:50:17;;;;;;;8.55;3.42;;;26.90;96.70;;;;;;4992370;28;20038;-70
2022/07/04 03:52:43;;;;;;;4.63;3.40;;;26.80;96.80;;;;;;4993039;28;20515;-70
2022/07/04 03:55:09;;;;;;;8.45;3.53;;;26.90;96.80;;;;;;4990929;28;20037;-70
2022/07/04 03:57:35;;;;;;;6.40;3.42;;;26.90;96.90;;;;;;4992861;28;20030;-70
2022/07/04 04:00:03;;;;;;;4.43;3.38;;;26.90;96.90;;;;;;4990914;28;20033;-71
2022/07/04 04:02:28;;;;;;;6.55;3.70;;;27.00;96.80;;;;;;4992401;28;20520;-70
2022/07/04 04:07:39;;;;;;;5.57;3.15;;;27.00;96.80;;;;;;4990442;28;20116;-70
2022/07/04 04:10:05;;;;;;;5.00;3.53;;;27.10;96.80;;;;;;4992090;28;20054;-70
2022/07/04 04:12:31;;;;;;;6.18;3.40;;;27.10;96.80;;;;;;4994340;28;20117;-70
2022/07/04 04:14:57;;;;;;;5.63;3.30;;;27.20;96.80;;;;;;4990754;28;20153;-71
2022/07/04 04:17:22;;;;;;;8.52;3.60;;;27.20;96.80;;;;;;4992316;28;20033;-71
2022/07/04 04:19:48;;;;;;;3.63;3.33;;;27.30;96.80;;;;;;4991637;28;20030;-70
2022/07/04 04:22:14;;;;;;;9.27;3.42;;;27.30;96.80;;;;;;4992201;28;20034;-71
2022/07/04 04:24:39;;;;;;;5.13;3.30;;;27.30;96.80;;;;;;4991081;28;20023;-71
2022/07/04 04:27:06;;;;;;;7.18;4.05;;;27.30;96.80;;;;;;4992166;28;20217;-71
2022/07/04 04:29:31;;;;;;;7.95;3.28;;;27.40;96.80;;;;;;4990897;28;20058;-71
2022/07/04 04:31:57;;;;;;;10.00;4.03;;;27.40;96.70;;;;;;4991606;28;20026;-71
2022/07/04 04:34:23;;;;;;;4.05;3.10;;;27.50;96.70;;;;;;4991750;28;20026;-71
2022/07/04 04:36:48;;;;;;;5.53;3.25;;;27.50;96.60;;;;;;4991761;28;20024;-71
2022/07/04 04:39:14;;;;;;;7.50;4.00;;;27.50;96.50;;;;;;4991639;28;20026;-71
2022/07/04 04:41:40;;;;;;;7.60;3.42;;;27.60;96.60;;;;;;4994538;28;20053;-71
2022/07/04 04:44:06;;;;;;;5.40;3.30;;;27.60;96.40;;;;;;4992099;28;20101;-71
2022/07/04 04:46:32;;;;;;;7.28;3.78;;;27.60;96.50;;;;;;4991682;28;20023;-70
2022/07/04 04:48:58;;;;;;;6.55;3.42;;;27.60;96.60;;;;;;4991694;28;20050;-71
2022/07/04 04:51:23;;;;;;;7.20;3.60;;;27.70;96.50;;;;;;4991504;28;20065;-70
2022/07/04 04:53:49;;;;;;;10.65;3.72;;;27.70;96.60;;;;;;4991758;28;20026;-73
2022/07/04 04:56:15;;;;;;;7.63;3.88;;;27.70;96.70;;;;;;4991475;28;20101;-72
2022/07/04 04:58:41;;;;;;;6.90;3.85;;;27.80;96.80;;;;;;4991467;28;20028;-72
2022/07/04 05:01:06;;;;;;;10.73;4.00;;;27.80;96.80;;;;;;4994151;28;20464;-71
2022/07/04 05:03:32;;;;;;;4.28;3.33;;;27.80;96.70;;;;;;4991451;28;20035;-71
2022/07/04 05:05:58;;;;;;;5.97;3.15;;;27.90;96.80;;;;;;4990094;28;20490;-72
2022/07/04 05:08:27;;;;;;;7.78;3.35;;;27.90;96.70;;;;;;4991904;28;20417;-72
2022/07/04 05:10:53;;;;;;;5.68;3.58;;;27.90;96.70;;;;;;4993995;28;20521;-72
2022/07/04 05:13:19;;;;;;;5.53;3.15;;;28.00;96.70;;;;;;4991719;28;20019;-70
2022/07/04 05:15:46;;;;;;;5.03;3.40;;;28.10;96.60;;;;;;4990731;28;20540;-72
2022/07/04 05:18:12;;;;;;;5.88;3.35;;;28.10;96.50;;;;;;4991608;28;20544;-72
2022/07/04 05:20:39;;;;;;;6.80;3.25;;;28.10;96.50;;;;;;4990976;28;20074;-71
2022/07/04 05:23:05;;;;;;;6.20;3.03;;;28.20;96.50;;;;;;4983091;28;20493;-71
2022/07/04 05:25:30;;;;;;;4.35;3.28;;;28.20;96.50;;;;;;4990756;28;20497;-72
2022/07/04 05:27:56;;;;;;;10.35;3.72;;;28.30;96.50;;;;;;4991741;28;20046;-71
2022/07/04 05:30:22;;;;;;;6.30;3.42;;;28.30;96.40;;;;;;4992382;28;20059;-71
2022/07/04 05:32:47;;;;;;;5.05;3.28;;;28.40;96.50;;;;;;4992952;28;20037;-71
2022/07/04 05:35:13;;;;;;;5.82;3.40;;;28.40;96.40;;;;;;4993031;28;20031;-71
2022/07/04 05:37:39;;;;;;;8.95;3.55;;;28.50;96.30;;;;;;4995476;28;20026;-72
2022/07/04 05:40:05;;;;;;;9.45;3.38;;;28.60;96.20;;;;;;4994895;28;20441;-72
2022/07/04 05:42:31;;;;;;;8.05;3.60;;;28.60;96.00;;;;;;4998352;28;20037;-72
2022/07/04 05:44:56;;;;;;;5.07;3.05;;;28.70;96.00;;;;;;4994592;28;20409;-72
2022/07/04 05:47:24;;;;;;;5.10;3.30;;;28.80;96.00;;;;;;4995227;28;20073;-71
2022/07/04 05:49:50;;;;;;;6.97;3.38;;;28.80;95.90;;;;;;4993369;28;20037;-72
2022/07/04 05:52:16;;;;;;;7.88;3.40;;;28.90;95.50;;;;;;4993078;28;20054;-72
2022/07/04 05:54:42;;;;;;;5.00;3.03;;;28.90;95.60;;;;;;4994559;28;20112;-72
2022/07/04 05:57:09;;;;;;;7.15;3.45;;;29.00;95.60;;;;;;4995072;28;20393;-72
2022/07/04 05:59:36;;;;;;;7.60;3.42;;;29.00;95.50;;;;;;4993441;28;20014;-72
2022/07/04 06:02:03;;;;;;;3.72;3.25;;;29.10;95.30;;;;;;4997511;28;20047;-71
2022/07/04 06:04:28;;;;;;;6.43;3.25;;;29.10;95.30;;;;;;4994789;28;20034;-71
2022/07/04 06:06:54;;;;;;;6.25;3.25;;;29.10;95.20;;;;;;4994577;28;20031;-72
2022/07/04 06:09:20;;;;;;;5.93;2.90;;;29.20;94.90;;;;;;4994701;28;20481;-72
2022/07/04 06:11:46;;;;;;;6.00;3.20;;;29.20;95.20;;;;;;4997609;28;20072;-72
2022/07/04 06:14:11;;;;;;;4.78;3.17;;;29.30;95.30;;;;;;4994525;28;20022;-72
2022/07/04 06:16:37;;;;;;;7.28;3.08;;;29.30;95.10;;;;;;4994506;28;20105;-71
2022/07/04 06:19:03;;;;;;;6.22;3.10;;;29.40;95.10;;;;;;4994227;28;20436;-73
2022/07/04 06:21:28;;;;;;;7.18;3.10;;;29.30;95.00;;;;;;4994267;28;20033;-72
2022/07/04 06:23:54;;;;;;;8.48;3.58;;;29.30;94.60;;;;;;4994322;28;20041;-72
2022/07/04 06:26:20;;;;;;;8.63;3.40;;;29.40;94.60;;;;;;4994215;28;20030;-76
2022/07/04 06:28:46;;;;;;;7.13;3.50;;;29.40;94.50;;;;;;4994024;28;20058;-74
2022/07/04 06:31:12;;;;;;;5.78;3.15;;;29.40;94.00;;;;;;4997262;28;20027;-71
2022/07/04 06:36:22;;;;;;;7.07;4.18;;;29.50;93.70;;;;;;4989521;28;20033;-73
2022/07/04 06:38:47;;;;;;;5.43;3.25;;;29.50;93.30;;;;;;4992987;28;20022;-73
2022/07/04 06:41:13;;;;;;;9.38;3.30;;;29.60;92.80;;;;;;4996752;28;20126;-73
2022/07/04 06:43:39;;;;;;;6.68;3.35;;;29.60;92.60;;;;;;4993978;28;20129;-75
2022/07/04 06:46:05;;;;;;;5.53;3.33;;;29.60;92.40;;;;;;4991619;28;20031;-74
2022/07/04 06:48:30;;;;;;;7.53;6.28;;;29.60;91.40;;;;;;4993818;28;20029;-72
2022/07/04 06:50:56;;;;;;;6.20;3.85;;;29.70;91.00;;;;;;4993623;28;20030;-71
2022/07/04 06:53:22;;;;;;;6.90;3.67;;;29.80;90.30;;;;;;4994451;28;20110;-72
2022/07/04 06:55:48;;;;;;;6.57;3.22;;;29.80;89.40;;;;;;4993421;28;20038;-71
2022/07/04 06:58:14;;;;;;;11.15;3.50;;;29.90;89.40;;;;;;4993995;28;20023;-71
2022/07/04 07:00:41;;;;;;;5.40;3.28;;;30.00;89.40;;;;;;4993244;28;20034;-71
2022/07/04 07:03:07;;;;;;;6.82;3.20;;;30.00;89.80;;;;;;4993826;28;20398;-72
2022/07/04 07:05:34;;;;;;;10.80;3.60;;;30.10;89.20;;;;;;4992520;28;20035;-71
2022/07/04 07:07:59;;;;;;;4.22;3.10;;;30.20;89.60;;;;;;4991052;28;20146;-72
2022/07/04 07:10:25;;;;;;;5.55;3.15;;;30.20;89.20;;;;;;4993348;28;20109;-72
2022/07/04 07:12:51;;;;;;;7.15;3.75;;;30.20;88.90;;;;;;4993072;28;20022;-73
2022/07/04 07:15:18;;;;;;;9.27;3.58;;;30.30;88.40;;;;;;4991496;28;20398;-73
2022/07/04 07:17:44;;;;;;;9.98;3.60;;;30.40;88.60;;;;;;4990499;28;20026;-72
2022/07/04 07:20:10;;;;;;;11.18;4.00;;;30.40;87.80;;;;;;4990810;28;20023;-72
2022/07/04 07:22:36;;;;;;;8.55;5.15;;;30.50;87.40;;;;;;4991974;28;20031;-72
2022/07/04 07:25:02;;;;;;;8.98;3.50;;;30.50;87.80;;;;;;4991883;28;20069;-73
2022/07/04 07:27:28;;;;;;;5.45;2.92;;;30.60;87.30;;;;;;4992280;28;20030;-73
2022/07/04 07:29:53;;;;;;;5.50;2.85;;;30.60;86.70;;;;;;4992858;28;20010;-72
2022/07/04 07:32:19;;;;;;;5.07;3.00;;;30.70;86.70;;;;;;4992040;28;20124;-73
2022/07/04 07:34:44;;;;;;;7.40;3.03;;;30.80;86.00;;;;;;4991204;28;20030;-72
2022/07/04 07:37:10;;;;;;;10.05;2.92;;;30.80;86.30;;;;;;4991926;28;20058;-75
2022/07/04 07:39:36;;;;;;;5.50;3.03;;;30.80;85.70;;;;;;4991487;28;20069;-72
2022/07/04 07:42:02;;;;;;;7.30;3.22;;;30.90;85.70;;;;;;4994613;28;20034;-73
2022/07/04 07:44:27;;;;;;;10.73;5.90;;;31.00;84.50;;;;;;4993132;28;20026;-73
2022/07/04 07:46:53;;;;;;;7.90;3.10;;;31.00;84.40;;;;;;4992723;28;20029;-71
2022/07/04 07:49:19;;;;;;;11.20;4.47;;;31.10;83.40;;;;;;4992634;28;20058;-74
2022/07/04 07:51:45;;;;;;;9.50;3.40;;;31.20;81.90;;;;;;4992825;28;20026;-74
2022/07/04 07:54:10;;;;;;;9.65;2.90;;;31.20;81.50;;;;;;4991764;28;20030;-74
2022/07/04 07:56:36;;;;;;;3.83;2.67;;;31.30;81.70;;;;;;4991350;28;20027;-73
2022/07/04 07:59:02;;;;;;;5.88;2.50;;;31.40;81.10;;;;;;4991350;28;20034;-72
2022/07/04 08:01:28;;;;;;;4.05;3.00;;;31.40;80.40;;;;;;4992484;28;20584;-74
2022/07/04 08:06:38;;;;;;;5.80;2.60;;;31.50;79.70;;;;;;4990276;28;20034;-74
2022/07/04 08:09:04;;;;;;;4.65;2.38;;;31.60;78.90;;;;;;4992445;28;20022;-74
2022/07/04 08:11:29;;;;;;;3.90;2.45;;;31.70;79.60;;;;;;4995255;28;20029;-74
2022/07/04 08:13:55;;;;;;;5.28;3.00;;;31.80;79.50;;;;;;4992632;28;20029;-74
2022/07/04 08:16:21;;;;;;;8.07;3.00;;;31.90;79.70;;;;;;4992346;28;20030;-74
2022/07/04 08:18:46;;;;;;;7.43;2.90;;;31.90;79.00;;;;;;4992241;28;20097;-75
2022/07/04 08:21:13;;;;;;;4.78;2.42;;;32.00;78.00;;;;;;4991917;28;20031;-74
2022/07/04 08:23:40;;;;;;;5.63;2.63;;;32.00;78.30;;;;;;4991476;28;20038;-74
2022/07/04 08:26:06;;;;;;;7.55;2.90;;;32.20;77.90;;;;;;4981460;28;20023;-73
2022/07/04 08:28:32;;;;;;;6.72;2.35;;;32.30;77.30;;;;;;4991384;28;20041;-75
2022/07/04 08:30:58;;;;;;;5.22;2.58;;;32.40;76.50;;;;;;4990799;28;20085;-75
2022/07/04 08:33:24;;;;;;;2.85;2.05;;;32.50;76.20;;;;;;4992213;28;20018;-77
2022/07/04 08:35:50;;;;;;;7.55;2.28;;;32.60;75.00;;;;;;4991431;28;20509;-74
2022/07/04 08:38:17;;;;;;;9.60;3.33;;;32.80;74.40;;;;;;4990968;28;20030;-75
2022/07/04 08:40:43;;;;;;;8.25;3.55;;;32.90;75.70;;;;;;4995044;28;20497;-75
2022/07/04 08:43:13;;;;;;;7.55;2.80;;;33.00;75.20;;;;;;4992410;28;20088;-73
2022/07/04 08:45:40;;;;;;;6.50;2.97;;;33.10;74.20;;;;;;4989913;28;20400;-75
2022/07/04 08:48:08;;;;;;;6.38;3.10;;;33.30;74.90;;;;;;4992252;28;20385;-73
2022/07/04 08:50:58;;;;;;;6.32;2.92;;;33.30;75.50;;;;;;4991265;28;20450;-74
2022/07/04 08:53:28;;;;;;;8.98;3.38;;;33.40;75.50;;;;;;4983200;28;20070;-74
2022/07/04 08:58:57;;;;;;;10.63;4.22;;;33.60;85.40;;;;;;5028135;28;20096;-73
2022/07/04 09:01:25;;;;;;;30.88;4.80;;;33.50;91.50;;;;;;4997158;28;20125;-73
2022/07/04 09:03:52;;;;;;;9.38;4.07;;;33.30;93.50;;;;;;4991401;28;20030;-73
2022/07/04 09:06:18;;;;;;;12.50;4.70;;;33.00;95.00;;;;;;4989954;28;20080;-73
2022/07/04 09:08:44;;;;;;;13.57;4.40;;;32.70;95.80;;;;;;4989369;28;20038;-73
2022/07/04 09:11:10;;;;;;;10.50;4.00;;;32.50;95.60;;;;;;4989604;28;20032;-74
2022/07/04 09:13:36;;;;;;;9.65;4.75;;;32.20;95.70;;;;;;4976700;28;20393;-74
2022/07/04 09:16:02;;;;;;;9.07;4.20;;;32.00;96.60;;;;;;4989989;28;20022;-73
2022/07/04 09:18:29;;;;;;;18.88;3.92;;;31.80;97.20;;;;;;4990089;28;20041;-74
2022/07/04 09:20:57;;;;;;;13.07;4.60;;;31.60;99.50;;;;;;4990843;28;20384;-74
2022/07/04 09:23:25;;;;;;;13.27;4.60;;;31.40;99.90;;;;;;4991861;28;20041;-73
2022/07/04 09:26:10;;;;;;;12.23;5.30;;;31.40;99.60;;;;;;4987669;28;20077;-73
2022/07/04 09:28:41;;;;;;;11.35;4.50;;;31.40;99.90;;;;;;4977541;28;20088;-74
2022/07/04 09:31:27;;;;;;;15.02;4.40;;;31.30;99.30;;;;;;4988448;28;20026;-74
2022/07/04 09:34:04;;;;;;;7.57;4.13;;;31.30;99.90;;;;;;4988923;28;20034;-74
2022/07/04 09:36:38;;;;;;;11.27;4.60;;;31.20;99.90;;;;;;4986496;28;20118;-73
2022/07/04 09:39:17;;;;;;;11.30;4.72;;;31.30;99.90;;;;;;4990040;28;20507;-74
2022/07/04 09:41:55;;;;;;;10.27;4.60;;;31.10;99.90;;;;;;4992588;28;20558;-74
2022/07/04 09:44:23;;;;;;;19.33;4.40;;;31.00;99.90;;;;;;4977988;28;20577;-73
2022/07/04 09:46:49;;;;;;;9.27;4.75;;;30.80;99.90;;;;;;4991011;28;20038;-73
2022/07/04 09:49:14;;;;;;;7.57;4.72;;;30.60;99.90;;;;;;4991092;28;20026;-73
2022/07/04 09:51:46;;;;;;;13.43;4.75;;;30.60;99.90;;;;;;4989690;28;20026;-74
2022/07/04 09:54:15;;;;;;;14.88;5.22;;;30.50;99.90;;;;;;4976499;28;20022;-73
2022/07/04 09:56:42;;;;;;;11.73;5.10;;;30.50;99.90;;;;;;4990817;28;20061;-73
2022/07/04 09:59:08;;;;;;;12.52;4.88;;;30.50;99.90;;;;;;4989898;28;20022;-73
2022/07/04 10:01:34;;;;;;;13.07;4.70;;;30.50;99.90;;;;;;4989583;28;20053;-73
2022/07/04 10:03:59;;;;;;;10.52;4.47;;;30.60;99.90;;;;;;4989638;28;20065;-73
2022/07/04 10:06:25;;;;;;;10.95;4.88;;;30.60;99.90;;;;;;4990775;28;20381;-75
2022/07/04 10:08:51;;;;;;;11.65;4.50;;;30.70;99.90;;;;;;4990991;28;20022;-74
2022/07/04 10:11:18;;;;;;;10.60;4.80;;;30.80;99.90;;;;;;4993993;28;20026;-73
2022/07/04 10:13:44;;;;;;;4.45;3.63;;;30.80;99.90;;;;;;4991083;28;20025;-74
2022/07/04 10:16:11;;;;;;;10.65;3.92;;;30.90;99.90;;;;;;4990977;28;20023;-72
2022/07/04 10:18:37;;;;;;;10.18;4.38;;;30.90;99.30;;;;;;4990869;28;20019;-72
2022/07/04 10:21:02;;;;;;;9.05;4.68;;;30.90;99.90;;;;;;4990875;28;20371;-73
2022/07/04 10:23:31;;;;;;;9.50;4.78;;;30.80;99.90;;;;;;4993691;28;20034;-73
2022/07/04 10:25:58;;;;;;;7.75;3.95;;;30.80;99.90;;;;;;5000913;28;20125;-75
2022/07/04 10:28:24;;;;;;;8.07;4.32;;;30.80;99.90;;;;;;4994879;28;20023;-75
2022/07/04 10:30:52;;;;;;;7.75;4.05;;;30.80;99.20;;;;;;4996911;28;20481;-73
2022/07/04 10:33:26;;;;;;;7.22;4.22;;;30.70;99.10;;;;;;4987958;28;20018;-73
2022/07/04 10:35:58;;;;;;;8.73;3.92;;;30.70;98.90;;;;;;4993621;28;20081;-75
2022/07/04 10:38:29;;;;;;;11.95;4.38;;;30.60;97.20;;;;;;4994715;28;20026;-72
2022/07/04 10:40:57;;;;;;;7.18;3.40;;;30.70;99.00;;;;;;4992182;28;20030;-74
2022/07/04 10:43:37;;;;;;;7.15;4.00;;;30.80;95.20;;;;;;4979687;28;20049;-74
2022/07/04 10:46:15;;;;;;;4.57;3.30;;;30.80;97.00;;;;;;4993429;28;20030;-72
2022/07/04 10:49:07;;;;;;;9.10;3.75;;;30.90;97.80;;;;;;4978682;28;20501;-73
2022/07/04 10:51:52;;;;;;;6.97;3.22;;;31.00;95.00;;;;;;4987196;28;20070;-74
2022/07/04 10:54:19;;;;;;;5.70;3.90;;;31.10;96.20;;;;;;4985551;28;20088;-73
2022/07/04 10:56:52;;;;;;;5.07;3.38;;;31.10;95.10;;;;;;4992486;28;20074;-74
2022/07/04 10:59:27;;;;;;;9.23;3.50;;;31.20;94.90;;;;;;4992170;28;20030;-76
2022/07/04 11:02:09;;;;;;;9.52;3.42;;;31.20;94.80;;;;;;4996359;28;20049;-73
2022/07/04 11:04:53;;;;;;;4.53;3.08;;;31.30;94.80;;;;;;4992261;28;20117;-73
2022/07/04 11:07:20;;;;;;;5.43;3.70;;;31.40;94.50;;;;;;4991776;28;20026;-73
2022/07/04 11:10:12;;;;;;;6.88;3.33;;;31.50;93.60;;;;;;4991840;28;20367;-74
2022/07/04 11:12:53;;;;;;;7.88;3.33;;;31.60;92.60;;;;;;4991118;28;20032;-72
2022/07/04 11:15:44;;;;;;;5.20;3.13;;;31.60;91.90;;;;;;4992922;28;20030;-75
2022/07/04 11:18:13;;;;;;;6.80;3.38;;;31.70;91.30;;;;;;4993397;28;20045;-73
2022/07/04 11:20:47;;;;;;;7.07;3.10;;;31.70;91.40;;;;;;4991687;28;20034;-74
2022/07/04 11:23:14;;;;;;;8.20;3.13;;;31.80;91.10;;;;;;4993984;28;20038;-75
2022/07/04 11:25:42;;;;;;;7.15;3.45;;;31.80;90.60;;;;;;4993110;28;20033;-74
2022/07/04 11:28:21;;;;;;;9.38;2.90;;;31.80;89.80;;;;;;4993903;28;20019;-75
2022/07/04 11:30:51;;;;;;;4.93;2.72;;;31.90;90.30;;;;;;4994513;28;20057;-75
2022/07/04 11:33:23;;;;;;;7.22;3.00;;;31.90;90.20;;;;;;4992320;28;20076;-75
2022/07/04 11:36:15;;;;;;;10.43;3.08;;;32.00;90.10;;;;;;4992619;28;20038;-75
2022/07/04 11:38:54;;;;;;;6.57;3.37;;;32.00;91.10;;;;;;4991962;28;20035;-74
2022/07/04 11:47:15;;;;;;;5.50;3.08;;;32.10;85.30;;;;;;4992012;28;20037;-74
2022/07/04 11:49:52;;;;;;;4.78;3.30;;;32.10;86.10;;;;;;4992321;28;20505;-76
2022/07/04 11:52:26;;;;;;;5.00;3.17;;;32.10;88.60;;;;;;4990924;28;20030;-74
2022/07/04 11:54:52;;;;;;;5.00;2.78;;;32.20;88.30;;;;;;4992246;28;20425;-74
2022/07/04 11:57:26;;;;;;;8.45;3.28;;;32.20;86.50;;;;;;4992777;28;20081;-73
2022/07/04 12:00:00;;;;;;;11.52;3.40;;;32.20;88.30;;;;;;4991191;28;20037;-73
2022/07/04 12:02:27;;;;;;;4.90;3.17;;;32.20;87.00;;;;;;4989592;28;20085;-74
2022/07/04 12:04:54;;;;;;;7.03;3.05;;;32.30;86.30;;;;;;4987689;28;20088;-73
2022/07/04 12:07:22;;;;;;;7.55;3.20;;;32.40;86.40;;;;;;4987245;28;20030;-72
2022/07/04 12:09:48;;;;;;;13.50;2.90;;;32.40;86.80;;;;;;4987018;28;20117;-73
2022/07/04 12:12:17;;;;;;;8.48;3.55;;;32.50;82.50;;;;;;4990537;28;20054;-72
2022/07/04 12:15:06;;;;;;;9.55;3.83;;;32.50;83.70;;;;;;4986598;28;20056;-73
2022/07/04 12:17:37;;;;;;;5.35;3.30;;;32.60;84.10;;;;;;4984109;28;20652;-74
2022/07/04 12:20:11;;;;;;;5.50;3.20;;;32.70;84.90;;;;;;4985062;28;20564;-76
2022/07/04 12:22:49;;;;;;;4.25;2.97;;;32.70;83.80;;;;;;4983585;28;20030;-76
2022/07/04 12:25:31;;;;;;;5.35;2.90;;;32.90;80.30;;;;;;4985276;28;20128;-73
2022/07/04 12:27:59;;;;;;;9.18;2.67;;;32.90;77.40;;;;;;4987087;28;20076;-75
2022/07/04 12:30:27;;;;;;;7.25;2.83;;;33.00;76.30;;;;;;4989889;28;20034;-74
2022/07/04 12:32:58;;;;;;;5.40;2.80;;;33.20;75.40;;;;;;4989579;28;20050;-73
2022/07/04 12:35:34;;;;;;;4.72;2.75;;;33.30;74.40;;;;;;4988047;28;20551;-74
2022/07/04 12:38:07;;;;;;;8.45;2.63;;;33.40;72.70;;;;;;4988360;28;20116;-72
2022/07/04 12:40:34;;;;;;;4.72;2.40;;;33.60;72.30;;;;;;4990941;28;20030;-73
2022/07/04 12:43:00;;;;;;;2.92;2.55;;;33.70;68.70;;;;;;4986626;28;20070;-74
2022/07/04 12:45:41;;;;;;;6.15;2.85;;;33.80;69.80;;;;;;4987563;28;20068;-73
2022/07/04 12:48:18;;;;;;;3.63;2.73;;;33.80;71.70;;;;;;4987589;28;20022;-74
2022/07/04 12:50:44;;;;;;;9.95;2.75;;;34.00;70.20;;;;;;4986536;28;20046;-74
2022/07/04 12:53:10;;;;;;;4.82;2.88;;;34.10;70.30;;;;;;4988499;28;20121;-75
2022/07/04 12:55:40;;;;;;;4.53;2.40;;;34.10;69.90;;;;;;4987899;28;20120;-74
2022/07/04 12:58:05;;;;;;;5.22;2.92;;;34.10;70.20;;;;;;4980124;28;20082;-73
2022/07/04 13:00:31;;;;;;;6.25;2.95;;;34.10;70.80;;;;;;4989063;28;20425;-73
2022/07/04 13:02:56;;;;;;;6.57;3.10;;;34.10;72.60;;;;;;4988598;28;20042;-73
2022/07/04 13:05:23;;;;;;;5.28;3.00;;;34.20;73.50;;;;;;4987467;28;20461;-73
2022/07/04 13:07:49;;;;;;;6.63;3.13;;;34.30;74.00;;;;;;4987870;28;20034;-74
2022/07/04 13:10:15;;;;;;;6.63;2.80;;;34.40;72.50;;;;;;4988220;28;20057;-73